sensor_id;sensor_type;location;lat;lon;timestamp;P1;durP1;ratioP1;P2;durP2;ratioP2
5553;SDS011;2800;49.528;8.666;2022-12-13T00:00:39;22.43;;;12.90;;
5553;SDS011;2800;49.528;8.666;2022-12-13T00:03:05;26.23;;;15.23;;
5553;SDS011;2800;49.528;8.666;2022-12-13T00:05:32;25.35;;;14.13;;
5553;SDS011;2800;49.528;8.666;2022-12-13T00:08:00;21.80;;;13.30;;
5553;SDS011;2800;49.528;8.666;2022-12-13T00:10:26;27.55;;;14.30;;
5553;SDS011;2800;49.528;8.666;2022-12-13T00:12:52;27.05;;;14.50;;
5553;SDS011;2800;49.528;8.666;2022-12-13T00:15:18;24.97;;;14.70;;
5553;SDS011;2800;49.528;8.666;2022-12-13T00:17:44;26.87;;;15.73;;
5553;SDS011;2800;49.528;8.666;2022-12-13T00:20:10;22.90;;;13.00;;
5553;SDS011;2800;49.528;8.666;2022-12-13T00:22:36;26.75;;;15.57;;
5553;SDS011;2800;49.528;8.666;2022-12-13T00:25:01;29.87;;;14.63;;
5553;SDS011;2800;49.528;8.666;2022-12-13T00:27:27;26.45;;;15.25;;
5553;SDS011;2800;49.528;8.666;2022-12-13T00:29:53;22.83;;;14.00;;
5553;SDS011;2800;49.528;8.666;2022-12-13T00:32:18;25.80;;;15.50;;
5553;SDS011;2800;49.528;8.666;2022-12-13T00:34:44;29.10;;;15.50;;
5553;SDS011;2800;49.528;8.666;2022-12-13T00:37:09;29.50;;;16.40;;
5553;SDS011;2800;49.528;8.666;2022-12-13T00:39:35;27.47;;;15.53;;
5553;SDS011;2800;49.528;8.666;2022-12-13T00:42:00;30.93;;;17.33;;
5553;SDS011;2800;49.528;8.666;2022-12-13T00:44:26;28.37;;;17.30;;
5553;SDS011;2800;49.528;8.666;2022-12-13T00:46:51;30.33;;;16.87;;
5553;SDS011;2800;49.528;8.666;2022-12-13T00:49:17;26.97;;;16.23;;
5553;SDS011;2800;49.528;8.666;2022-12-13T00:51:43;33.37;;;16.60;;
5553;SDS011;2800;49.528;8.666;2022-12-13T00:54:08;27.43;;;16.20;;
5553;SDS011;2800;49.528;8.666;2022-12-13T00:56:35;28.63;;;16.13;;
5553;SDS011;2800;49.528;8.666;2022-12-13T00:59:01;28.45;;;16.05;;
5553;SDS011;2800;49.528;8.666;2022-12-13T01:01:28;26.77;;;15.20;;
5553;SDS011;2800;49.528;8.666;2022-12-13T01:03:56;27.60;;;15.90;;
5553;SDS011;2800;49.528;8.666;2022-12-13T01:06:27;30.05;;;16.42;;
5553;SDS011;2800;49.528;8.666;2022-12-13T01:08:55;30.05;;;17.30;;
5553;SDS011;2800;49.528;8.666;2022-12-13T01:11:21;30.37;;;17.00;;
5553;SDS011;2800;49.528;8.666;2022-12-13T01:13:47;32.57;;;17.67;;
5553;SDS011;2800;49.528;8.666;2022-12-13T01:16:12;29.42;;;16.98;;
5553;SDS011;2800;49.528;8.666;2022-12-13T01:18:38;28.70;;;16.43;;
5553;SDS011;2800;49.528;8.666;2022-12-13T01:21:06;32.63;;;18.15;;
5553;SDS011;2800;49.528;8.666;2022-12-13T01:23:35;35.05;;;19.25;;
5553;SDS011;2800;49.528;8.666;2022-12-13T01:26:01;31.33;;;18.93;;
5553;SDS011;2800;49.528;8.666;2022-12-13T01:28:28;28.40;;;16.33;;
5553;SDS011;2800;49.528;8.666;2022-12-13T01:30:58;30.30;;;16.45;;
5553;SDS011;2800;49.528;8.666;2022-12-13T01:33:25;29.33;;;16.55;;
5553;SDS011;2800;49.528;8.666;2022-12-13T01:35:52;28.70;;;16.95;;
5553;SDS011;2800;49.528;8.666;2022-12-13T01:38:17;27.13;;;16.47;;
5553;SDS011;2800;49.528;8.666;2022-12-13T01:40:44;26.23;;;15.43;;
5553;SDS011;2800;49.528;8.666;2022-12-13T01:43:14;26.40;;;15.25;;
5553;SDS011;2800;49.528;8.666;2022-12-13T01:45:40;32.30;;;16.90;;
5553;SDS011;2800;49.528;8.666;2022-12-13T01:48:08;27.23;;;14.77;;
5553;SDS011;2800;49.528;8.666;2022-12-13T01:50:41;27.55;;;16.00;;
5553;SDS011;2800;49.528;8.666;2022-12-13T01:53:12;25.05;;;14.88;;
5553;SDS011;2800;49.528;8.666;2022-12-13T01:55:42;32.65;;;16.40;;
5553;SDS011;2800;49.528;8.666;2022-12-13T01:58:11;29.58;;;15.30;;
5553;SDS011;2800;49.528;8.666;2022-12-13T02:00:38;25.27;;;14.00;;
5553;SDS011;2800;49.528;8.666;2022-12-13T02:03:04;32.15;;;17.00;;
5553;SDS011;2800;49.528;8.666;2022-12-13T02:05:38;31.33;;;17.07;;
5553;SDS011;2800;49.528;8.666;2022-12-13T02:08:26;26.30;;;15.52;;
5553;SDS011;2800;49.528;8.666;2022-12-13T02:10:53;29.88;;;16.42;;
5553;SDS011;2800;49.528;8.666;2022-12-13T02:13:19;26.20;;;15.40;;
5553;SDS011;2800;49.528;8.666;2022-12-13T02:18:54;29.98;;;15.23;;
5553;SDS011;2800;49.528;8.666;2022-12-13T02:21:41;34.45;;;16.52;;
5553;SDS011;2800;49.528;8.666;2022-12-13T02:24:36;32.88;;;17.27;;
5553;SDS011;2800;49.528;8.666;2022-12-13T02:27:20;30.80;;;16.98;;
5553;SDS011;2800;49.528;8.666;2022-12-13T02:32:49;29.40;;;16.20;;
5553;SDS011;2800;49.528;8.666;2022-12-13T02:38:16;27.30;;;15.05;;
5553;SDS011;2800;49.528;8.666;2022-12-13T02:41:14;28.88;;;16.25;;
5553;SDS011;2800;49.528;8.666;2022-12-13T02:43:58;32.97;;;16.65;;
5553;SDS011;2800;49.528;8.666;2022-12-13T02:46:31;29.05;;;15.75;;
5553;SDS011;2800;49.528;8.666;2022-12-13T02:49:00;28.67;;;15.32;;
5553;SDS011;2800;49.528;8.666;2022-12-13T02:51:27;26.20;;;15.13;;
5553;SDS011;2800;49.528;8.666;2022-12-13T02:53:53;27.90;;;15.35;;
5553;SDS011;2800;49.528;8.666;2022-12-13T02:56:19;30.07;;;14.87;;
5553;SDS011;2800;49.528;8.666;2022-12-13T02:58:46;30.67;;;17.30;;
5553;SDS011;2800;49.528;8.666;2022-12-13T03:01:19;27.83;;;15.40;;
5553;SDS011;2800;49.528;8.666;2022-12-13T03:06:53;27.30;;;15.75;;
5553;SDS011;2800;49.528;8.666;2022-12-13T03:12:47;30.35;;;16.85;;
5553;SDS011;2800;49.528;8.666;2022-12-13T03:15:38;27.42;;;15.40;;
5553;SDS011;2800;49.528;8.666;2022-12-13T03:18:16;33.50;;;18.40;;
5553;SDS011;2800;49.528;8.666;2022-12-13T03:20:48;35.70;;;17.27;;
5553;SDS011;2800;49.528;8.666;2022-12-13T03:23:15;34.67;;;16.48;;
5553;SDS011;2800;49.528;8.666;2022-12-13T03:25:41;31.73;;;17.23;;
5553;SDS011;2800;49.528;8.666;2022-12-13T03:28:09;29.48;;;17.08;;
5553;SDS011;2800;49.528;8.666;2022-12-13T03:30:34;31.83;;;17.33;;
5553;SDS011;2800;49.528;8.666;2022-12-13T03:33:00;29.37;;;16.50;;
5553;SDS011;2800;49.528;8.666;2022-12-13T03:35:26;30.07;;;17.27;;
5553;SDS011;2800;49.528;8.666;2022-12-13T03:37:52;30.00;;;16.90;;
5553;SDS011;2800;49.528;8.666;2022-12-13T03:40:17;31.83;;;16.97;;
5553;SDS011;2800;49.528;8.666;2022-12-13T03:42:45;32.20;;;17.70;;
5553;SDS011;2800;49.528;8.666;2022-12-13T03:45:11;31.17;;;17.50;;
5553;SDS011;2800;49.528;8.666;2022-12-13T03:47:37;33.53;;;18.43;;
5553;SDS011;2800;49.528;8.666;2022-12-13T03:50:02;32.20;;;17.90;;
5553;SDS011;2800;49.528;8.666;2022-12-13T03:52:28;31.17;;;17.97;;
5553;SDS011;2800;49.528;8.666;2022-12-13T03:54:54;33.53;;;18.50;;
5553;SDS011;2800;49.528;8.666;2022-12-13T03:57:19;29.77;;;16.80;;
5553;SDS011;2800;49.528;8.666;2022-12-13T03:59:45;32.10;;;17.17;;
5553;SDS011;2800;49.528;8.666;2022-12-13T04:02:10;29.60;;;16.40;;
5553;SDS011;2800;49.528;8.666;2022-12-13T04:04:36;29.20;;;16.13;;
5553;SDS011;2800;49.528;8.666;2022-12-13T04:07:01;27.40;;;16.57;;
5553;SDS011;2800;49.528;8.666;2022-12-13T04:09:27;32.20;;;17.17;;
5553;SDS011;2800;49.528;8.666;2022-12-13T04:11:52;29.00;;;17.30;;
5553;SDS011;2800;49.528;8.666;2022-12-13T04:14:37;37.22;;;18.85;;
5553;SDS011;2800;49.528;8.666;2022-12-13T04:17:02;29.90;;;16.93;;
5553;SDS011;2800;49.528;8.666;2022-12-13T04:19:28;29.90;;;17.33;;
5553;SDS011;2800;49.528;8.666;2022-12-13T04:21:53;32.80;;;17.70;;
5553;SDS011;2800;49.528;8.666;2022-12-13T04:24:19;32.87;;;17.80;;
5553;SDS011;2800;49.528;8.666;2022-12-13T04:26:46;30.67;;;18.02;;
5553;SDS011;2800;49.528;8.666;2022-12-13T04:29:11;31.83;;;18.73;;
5553;SDS011;2800;49.528;8.666;2022-12-13T04:31:37;33.20;;;17.97;;
5553;SDS011;2800;49.528;8.666;2022-12-13T04:34:03;32.83;;;18.13;;
5553;SDS011;2800;49.528;8.666;2022-12-13T04:36:28;32.30;;;18.23;;
5553;SDS011;2800;49.528;8.666;2022-12-13T04:38:54;34.70;;;18.90;;
5553;SDS011;2800;49.528;8.666;2022-12-13T04:41:20;34.07;;;18.97;;
5553;SDS011;2800;49.528;8.666;2022-12-13T04:43:52;32.00;;;18.80;;
5553;SDS011;2800;49.528;8.666;2022-12-13T04:46:21;39.47;;;20.10;;
5553;SDS011;2800;49.528;8.666;2022-12-13T04:48:46;42.78;;;19.15;;
5553;SDS011;2800;49.528;8.666;2022-12-13T04:51:12;31.40;;;17.93;;
5553;SDS011;2800;49.528;8.666;2022-12-13T04:53:40;33.45;;;17.70;;
5553;SDS011;2800;49.528;8.666;2022-12-13T04:56:05;32.67;;;18.50;;
5553;SDS011;2800;49.528;8.666;2022-12-13T04:58:31;30.90;;;17.10;;
5553;SDS011;2800;49.528;8.666;2022-12-13T05:00:57;31.70;;;17.57;;
5553;SDS011;2800;49.528;8.666;2022-12-13T05:03:22;31.57;;;17.73;;
5553;SDS011;2800;49.528;8.666;2022-12-13T05:05:48;34.23;;;19.23;;
5553;SDS011;2800;49.528;8.666;2022-12-13T05:08:14;28.97;;;17.93;;
5553;SDS011;2800;49.528;8.666;2022-12-13T05:10:40;30.55;;;17.92;;
5553;SDS011;2800;49.528;8.666;2022-12-13T05:13:06;32.77;;;19.47;;
5553;SDS011;2800;49.528;8.666;2022-12-13T05:15:32;30.48;;;19.00;;
5553;SDS011;2800;49.528;8.666;2022-12-13T05:17:58;34.92;;;20.13;;
5553;SDS011;2800;49.528;8.666;2022-12-13T05:20:25;44.45;;;22.52;;
5553;SDS011;2800;49.528;8.666;2022-12-13T05:22:51;31.17;;;16.80;;
5553;SDS011;2800;49.528;8.666;2022-12-13T05:25:16;31.70;;;17.57;;
5553;SDS011;2800;49.528;8.666;2022-12-13T05:27:42;35.53;;;19.17;;
5553;SDS011;2800;49.528;8.666;2022-12-13T05:30:07;34.93;;;19.80;;
5553;SDS011;2800;49.528;8.666;2022-12-13T05:32:34;34.25;;;19.20;;
5553;SDS011;2800;49.528;8.666;2022-12-13T05:35:03;31.42;;;17.58;;
5553;SDS011;2800;49.528;8.666;2022-12-13T05:37:29;32.30;;;18.53;;
5553;SDS011;2800;49.528;8.666;2022-12-13T05:39:54;29.50;;;17.87;;
5553;SDS011;2800;49.528;8.666;2022-12-13T05:42:20;32.17;;;18.87;;
5553;SDS011;2800;49.528;8.666;2022-12-13T05:44:45;32.83;;;18.17;;
5553;SDS011;2800;49.528;8.666;2022-12-13T05:47:11;32.27;;;18.43;;
5553;SDS011;2800;49.528;8.666;2022-12-13T05:49:36;30.87;;;17.37;;
5553;SDS011;2800;49.528;8.666;2022-12-13T05:52:02;30.17;;;18.10;;
5553;SDS011;2800;49.528;8.666;2022-12-13T05:54:27;31.87;;;18.97;;
5553;SDS011;2800;49.528;8.666;2022-12-13T05:56:53;30.07;;;17.27;;
5553;SDS011;2800;49.528;8.666;2022-12-13T05:59:18;30.67;;;16.47;;
5553;SDS011;2800;49.528;8.666;2022-12-13T06:01:44;30.93;;;17.60;;
5553;SDS011;2800;49.528;8.666;2022-12-13T06:04:10;29.33;;;16.93;;
5553;SDS011;2800;49.528;8.666;2022-12-13T06:06:36;27.58;;;16.00;;
5553;SDS011;2800;49.528;8.666;2022-12-13T06:09:02;29.47;;;17.13;;
5553;SDS011;2800;49.528;8.666;2022-12-13T06:11:27;28.13;;;16.23;;
5553;SDS011;2800;49.528;8.666;2022-12-13T06:13:53;31.00;;;17.30;;
5553;SDS011;2800;49.528;8.666;2022-12-13T06:16:18;28.43;;;17.77;;
5553;SDS011;2800;49.528;8.666;2022-12-13T06:18:45;35.53;;;20.73;;
5553;SDS011;2800;49.528;8.666;2022-12-13T06:21:11;30.23;;;18.07;;
5553;SDS011;2800;49.528;8.666;2022-12-13T06:23:36;33.10;;;19.13;;
5553;SDS011;2800;49.528;8.666;2022-12-13T06:26:05;31.47;;;18.90;;
5553;SDS011;2800;49.528;8.666;2022-12-13T06:28:31;30.95;;;18.75;;
5553;SDS011;2800;49.528;8.666;2022-12-13T06:31:00;31.73;;;19.93;;
5553;SDS011;2800;49.528;8.666;2022-12-13T06:33:26;28.35;;;17.77;;
5553;SDS011;2800;49.528;8.666;2022-12-13T06:35:55;34.40;;;18.97;;
5553;SDS011;2800;49.528;8.666;2022-12-13T06:38:22;31.17;;;18.40;;
5553;SDS011;2800;49.528;8.666;2022-12-13T06:40:48;29.75;;;20.30;;
5553;SDS011;2800;49.528;8.666;2022-12-13T06:43:13;32.57;;;19.63;;
5553;SDS011;2800;49.528;8.666;2022-12-13T06:45:39;29.03;;;18.33;;
5553;SDS011;2800;49.528;8.666;2022-12-13T06:48:05;25.70;;;16.70;;
5553;SDS011;2800;49.528;8.666;2022-12-13T06:50:31;33.97;;;17.30;;
5553;SDS011;2800;49.528;8.666;2022-12-13T06:52:56;23.87;;;15.03;;
5553;SDS011;2800;49.528;8.666;2022-12-13T06:55:22;28.70;;;17.77;;
5553;SDS011;2800;49.528;8.666;2022-12-13T06:57:47;26.87;;;15.47;;
5553;SDS011;2800;49.528;8.666;2022-12-13T07:00:13;32.80;;;16.63;;
5553;SDS011;2800;49.528;8.666;2022-12-13T07:02:39;26.25;;;15.48;;
5553;SDS011;2800;49.528;8.666;2022-12-13T07:05:05;26.50;;;17.13;;
5553;SDS011;2800;49.528;8.666;2022-12-13T07:07:31;29.10;;;18.30;;
5553;SDS011;2800;49.528;8.666;2022-12-13T07:09:56;28.43;;;17.87;;
5553;SDS011;2800;49.528;8.666;2022-12-13T07:12:22;29.60;;;17.63;;
5553;SDS011;2800;49.528;8.666;2022-12-13T07:14:48;28.13;;;17.80;;
5553;SDS011;2800;49.528;8.666;2022-12-13T07:17:13;29.50;;;15.90;;
5553;SDS011;2800;49.528;8.666;2022-12-13T07:19:39;31.43;;;16.60;;
5553;SDS011;2800;49.528;8.666;2022-12-13T07:22:04;28.07;;;16.80;;
5553;SDS011;2800;49.528;8.666;2022-12-13T07:24:30;36.40;;;18.00;;
5553;SDS011;2800;49.528;8.666;2022-12-13T07:26:56;31.50;;;17.80;;
5553;SDS011;2800;49.528;8.666;2022-12-13T07:29:21;25.70;;;16.20;;
5553;SDS011;2800;49.528;8.666;2022-12-13T07:31:47;32.87;;;17.60;;
5553;SDS011;2800;49.528;8.666;2022-12-13T07:34:12;33.37;;;17.67;;
5553;SDS011;2800;49.528;8.666;2022-12-13T07:36:38;28.77;;;16.30;;
5553;SDS011;2800;49.528;8.666;2022-12-13T07:39:03;27.73;;;16.80;;
5553;SDS011;2800;49.528;8.666;2022-12-13T07:41:29;34.40;;;19.20;;
5553;SDS011;2800;49.528;8.666;2022-12-13T07:43:55;26.53;;;16.40;;
5553;SDS011;2800;49.528;8.666;2022-12-13T07:46:20;28.57;;;15.70;;
5553;SDS011;2800;49.528;8.666;2022-12-13T07:48:46;29.40;;;16.60;;
5553;SDS011;2800;49.528;8.666;2022-12-13T07:51:11;33.50;;;17.70;;
5553;SDS011;2800;49.528;8.666;2022-12-13T07:53:38;25.52;;;14.05;;
5553;SDS011;2800;49.528;8.666;2022-12-13T07:56:04;27.88;;;15.73;;
5553;SDS011;2800;49.528;8.666;2022-12-13T07:58:34;26.58;;;14.88;;
5553;SDS011;2800;49.528;8.666;2022-12-13T08:01:02;26.85;;;15.55;;
5553;SDS011;2800;49.528;8.666;2022-12-13T08:03:29;23.88;;;14.95;;
5553;SDS011;2800;49.528;8.666;2022-12-13T08:06:06;26.40;;;15.23;;
5553;SDS011;2800;49.528;8.666;2022-12-13T08:08:34;24.55;;;15.20;;
5553;SDS011;2800;49.528;8.666;2022-12-13T08:11:07;25.35;;;15.35;;
5553;SDS011;2800;49.528;8.666;2022-12-13T08:13:34;28.52;;;17.30;;
5553;SDS011;2800;49.528;8.666;2022-12-13T08:16:00;29.93;;;17.80;;
5553;SDS011;2800;49.528;8.666;2022-12-13T08:18:28;26.98;;;16.10;;
5553;SDS011;2800;49.528;8.666;2022-12-13T08:20:58;24.73;;;15.30;;
5553;SDS011;2800;49.528;8.666;2022-12-13T08:23:24;31.48;;;19.48;;
5553;SDS011;2800;49.528;8.666;2022-12-13T08:25:51;34.97;;;20.87;;
5553;SDS011;2800;49.528;8.666;2022-12-13T08:28:18;39.75;;;24.10;;
5553;SDS011;2800;49.528;8.666;2022-12-13T08:30:43;45.23;;;26.40;;
5553;SDS011;2800;49.528;8.666;2022-12-13T08:33:09;40.20;;;23.57;;
5553;SDS011;2800;49.528;8.666;2022-12-13T08:35:34;33.90;;;21.40;;
5553;SDS011;2800;49.528;8.666;2022-12-13T08:38:00;32.60;;;19.70;;
5553;SDS011;2800;49.528;8.666;2022-12-13T08:40:26;29.95;;;18.65;;
5553;SDS011;2800;49.528;8.666;2022-12-13T08:42:53;52.33;;;34.50;;
5553;SDS011;2800;49.528;8.666;2022-12-13T08:45:19;34.45;;;25.75;;
5553;SDS011;2800;49.528;8.666;2022-12-13T08:47:45;31.13;;;20.40;;
5553;SDS011;2800;49.528;8.666;2022-12-13T08:50:11;31.23;;;19.90;;
5553;SDS011;2800;49.528;8.666;2022-12-13T08:52:36;34.03;;;20.70;;
5553;SDS011;2800;49.528;8.666;2022-12-13T08:55:02;28.40;;;18.35;;
5553;SDS011;2800;49.528;8.666;2022-12-13T08:57:28;26.60;;;19.37;;
5553;SDS011;2800;49.528;8.666;2022-12-13T08:59:53;61.10;;;36.27;;
5553;SDS011;2800;49.528;8.666;2022-12-13T09:02:19;61.40;;;38.07;;
5553;SDS011;2800;49.528;8.666;2022-12-13T09:04:44;42.20;;;24.30;;
5553;SDS011;2800;49.528;8.666;2022-12-13T09:07:10;31.53;;;21.10;;
5553;SDS011;2800;49.528;8.666;2022-12-13T09:09:36;37.30;;;23.30;;
5553;SDS011;2800;49.528;8.666;2022-12-13T09:12:02;42.93;;;24.93;;
5553;SDS011;2800;49.528;8.666;2022-12-13T09:14:28;34.30;;;23.03;;
5553;SDS011;2800;49.528;8.666;2022-12-13T09:16:54;36.47;;;24.40;;
5553;SDS011;2800;49.528;8.666;2022-12-13T09:19:19;33.60;;;22.10;;
5553;SDS011;2800;49.528;8.666;2022-12-13T09:21:45;33.03;;;21.45;;
5553;SDS011;2800;49.528;8.666;2022-12-13T09:24:11;36.10;;;23.90;;
5553;SDS011;2800;49.528;8.666;2022-12-13T09:26:36;38.63;;;24.47;;
5553;SDS011;2800;49.528;8.666;2022-12-13T09:29:02;35.00;;;23.53;;
5553;SDS011;2800;49.528;8.666;2022-12-13T09:31:27;43.40;;;29.73;;
5553;SDS011;2800;49.528;8.666;2022-12-13T09:33:53;40.63;;;25.80;;
5553;SDS011;2800;49.528;8.666;2022-12-13T09:36:19;47.10;;;29.57;;
5553;SDS011;2800;49.528;8.666;2022-12-13T09:38:45;58.95;;;43.63;;
5553;SDS011;2800;49.528;8.666;2022-12-13T09:43:43;34.97;;;23.60;;
5553;SDS011;2800;49.528;8.666;2022-12-13T09:46:15;35.70;;;23.83;;
5553;SDS011;2800;49.528;8.666;2022-12-13T09:48:47;39.60;;;25.60;;
5553;SDS011;2800;49.528;8.666;2022-12-13T09:51:14;41.42;;;26.23;;
5553;SDS011;2800;49.528;8.666;2022-12-13T09:53:39;44.33;;;28.67;;
5553;SDS011;2800;49.528;8.666;2022-12-13T09:56:05;37.33;;;25.93;;
5553;SDS011;2800;49.528;8.666;2022-12-13T09:58:36;39.38;;;27.33;;
5553;SDS011;2800;49.528;8.666;2022-12-13T10:01:03;37.92;;;25.67;;
5553;SDS011;2800;49.528;8.666;2022-12-13T10:03:29;39.10;;;27.00;;
5553;SDS011;2800;49.528;8.666;2022-12-13T10:08:24;36.67;;;22.73;;
5553;SDS011;2800;49.528;8.666;2022-12-13T10:10:56;34.72;;;23.70;;
5553;SDS011;2800;49.528;8.666;2022-12-13T10:16:05;35.40;;;25.80;;
5553;SDS011;2800;49.528;8.666;2022-12-13T10:18:36;40.75;;;30.02;;
5553;SDS011;2800;49.528;8.666;2022-12-13T10:21:06;38.60;;;27.45;;
5553;SDS011;2800;49.528;8.666;2022-12-13T10:23:35;39.27;;;27.50;;
5553;SDS011;2800;49.528;8.666;2022-12-13T10:26:00;35.93;;;25.50;;
5553;SDS011;2800;49.528;8.666;2022-12-13T10:28:32;34.03;;;24.77;;
5553;SDS011;2800;49.528;8.666;2022-12-13T10:30:58;33.30;;;26.23;;
5553;SDS011;2800;49.528;8.666;2022-12-13T10:33:26;37.13;;;27.70;;
5553;SDS011;2800;49.528;8.666;2022-12-13T10:36:06;35.50;;;26.80;;
5553;SDS011;2800;49.528;8.666;2022-12-13T10:38:41;40.17;;;29.20;;
5553;SDS011;2800;49.528;8.666;2022-12-13T10:46:47;33.60;;;24.20;;
5553;SDS011;2800;49.528;8.666;2022-12-13T10:49:17;29.73;;;22.97;;
5553;SDS011;2800;49.528;8.666;2022-12-13T10:51:46;29.40;;;22.10;;
5553;SDS011;2800;49.528;8.666;2022-12-13T10:54:15;28.53;;;20.97;;
5553;SDS011;2800;49.528;8.666;2022-12-13T10:56:48;32.13;;;21.10;;
5553;SDS011;2800;49.528;8.666;2022-12-13T11:02:00;25.53;;;18.50;;
5553;SDS011;2800;49.528;8.666;2022-12-13T11:04:46;23.93;;;17.83;;
5553;SDS011;2800;49.528;8.666;2022-12-13T11:07:28;23.97;;;18.03;;
5553;SDS011;2800;49.528;8.666;2022-12-13T11:10:01;23.60;;;17.20;;
5553;SDS011;2800;49.528;8.666;2022-12-13T11:12:41;21.40;;;15.90;;
5553;SDS011;2800;49.528;8.666;2022-12-13T11:15:12;20.97;;;15.30;;
5553;SDS011;2800;49.528;8.666;2022-12-13T11:17:45;24.60;;;16.90;;
5553;SDS011;2800;49.528;8.666;2022-12-13T11:20:23;24.17;;;17.03;;
5553;SDS011;2800;49.528;8.666;2022-12-13T11:23:27;21.40;;;16.93;;
5553;SDS011;2800;49.528;8.666;2022-12-13T11:26:14;19.27;;;14.80;;
5553;SDS011;2800;49.528;8.666;2022-12-13T11:31:51;20.10;;;14.83;;
5553;SDS011;2800;49.528;8.666;2022-12-13T11:40:30;21.93;;;16.17;;
5553;SDS011;2800;49.528;8.666;2022-12-13T11:43:11;19.97;;;14.60;;
5553;SDS011;2800;49.528;8.666;2022-12-13T11:46:01;25.20;;;14.17;;
5553;SDS011;2800;49.528;8.666;2022-12-13T11:48:46;20.97;;;14.60;;
5553;SDS011;2800;49.528;8.666;2022-12-13T11:51:17;19.60;;;13.70;;
5553;SDS011;2800;49.528;8.666;2022-12-13T11:56:26;15.87;;;12.77;;
5553;SDS011;2800;49.528;8.666;2022-12-13T12:01:29;20.57;;;13.13;;
5553;SDS011;2800;49.528;8.666;2022-12-13T12:04:45;20.90;;;11.60;;
5553;SDS011;2800;49.528;8.666;2022-12-13T12:06:58;19.97;;;12.03;;
5553;SDS011;2800;49.528;8.666;2022-12-13T12:09:37;16.03;;;12.33;;
5553;SDS011;2800;49.528;8.666;2022-12-13T12:12:15;15.30;;;11.43;;
5553;SDS011;2800;49.528;8.666;2022-12-13T12:14:58;19.20;;;11.73;;
5553;SDS011;2800;49.528;8.666;2022-12-13T12:17:29;14.00;;;10.20;;
5553;SDS011;2800;49.528;8.666;2022-12-13T12:19:55;13.70;;;10.57;;
5553;SDS011;2800;49.528;8.666;2022-12-13T12:35:03;14.33;;;9.43;;
5553;SDS011;2800;49.528;8.666;2022-12-13T12:37:24;15.20;;;9.20;;
5553;SDS011;2800;49.528;8.666;2022-12-13T12:45:27;12.20;;;9.23;;
5553;SDS011;2800;49.528;8.666;2022-12-13T12:48:29;13.80;;;9.43;;
5553;SDS011;2800;49.528;8.666;2022-12-13T12:51:19;14.00;;;9.23;;
5553;SDS011;2800;49.528;8.666;2022-12-13T12:54:02;12.73;;;9.73;;
5553;SDS011;2800;49.528;8.666;2022-12-13T13:02:04;14.10;;;11.73;;
5553;SDS011;2800;49.528;8.666;2022-12-13T13:04:51;19.20;;;12.67;;
5553;SDS011;2800;49.528;8.666;2022-12-13T13:07:28;20.90;;;12.63;;
5553;SDS011;2800;49.528;8.666;2022-12-13T13:10:06;20.30;;;12.50;;
5553;SDS011;2800;49.528;8.666;2022-12-13T13:12:34;21.47;;;12.93;;
5553;SDS011;2800;49.528;8.666;2022-12-13T13:17:55;20.33;;;14.67;;
5553;SDS011;2800;49.528;8.666;2022-12-13T13:20:21;18.10;;;14.10;;
5553;SDS011;2800;49.528;8.666;2022-12-13T13:22:48;24.53;;;15.70;;
5553;SDS011;2800;49.528;8.666;2022-12-13T13:28:03;24.30;;;17.50;;
5553;SDS011;2800;49.528;8.666;2022-12-13T13:30:37;25.17;;;17.10;;
5553;SDS011;2800;49.528;8.666;2022-12-13T13:36:04;26.50;;;19.23;;
5553;SDS011;2800;49.528;8.666;2022-12-13T13:38:48;29.20;;;18.97;;
5553;SDS011;2800;49.528;8.666;2022-12-13T13:52:30;29.47;;;18.97;;
5553;SDS011;2800;49.528;8.666;2022-12-13T13:55:19;23.73;;;19.07;;
5553;SDS011;2800;49.528;8.666;2022-12-13T14:01:04;30.83;;;19.70;;
5553;SDS011;2800;49.528;8.666;2022-12-13T14:09:13;28.50;;;17.43;;
5553;SDS011;2800;49.528;8.666;2022-12-13T14:11:52;26.07;;;16.87;;
5553;SDS011;2800;49.528;8.666;2022-12-13T14:26:09;28.57;;;18.87;;
5553;SDS011;2800;49.528;8.666;2022-12-13T14:31:24;26.48;;;17.75;;
5553;SDS011;2800;49.528;8.666;2022-12-13T14:33:57;26.70;;;17.50;;
5553;SDS011;2800;49.528;8.666;2022-12-13T14:36:27;29.70;;;18.30;;
5553;SDS011;2800;49.528;8.666;2022-12-13T14:39:00;25.58;;;18.48;;
5553;SDS011;2800;49.528;8.666;2022-12-13T14:41:30;44.25;;;29.98;;
5553;SDS011;2800;49.528;8.666;2022-12-13T14:44:12;43.80;;;28.17;;
5553;SDS011;2800;49.528;8.666;2022-12-13T14:46:51;33.17;;;21.20;;
5553;SDS011;2800;49.528;8.666;2022-12-13T14:49:19;31.73;;;19.73;;
5553;SDS011;2800;49.528;8.666;2022-12-13T14:51:47;24.20;;;17.13;;
5553;SDS011;2800;49.528;8.666;2022-12-13T14:54:20;34.58;;;24.25;;
5553;SDS011;2800;49.528;8.666;2022-12-13T14:57:00;35.97;;;25.15;;
5553;SDS011;2800;49.528;8.666;2022-12-13T14:59:28;30.27;;;19.45;;
5553;SDS011;2800;49.528;8.666;2022-12-13T15:01:58;26.27;;;17.05;;
5553;SDS011;2800;49.528;8.666;2022-12-13T15:04:33;19.60;;;14.80;;
5553;SDS011;2800;49.528;8.666;2022-12-13T15:07:12;25.58;;;15.35;;
5553;SDS011;2800;49.528;8.666;2022-12-13T15:10:00;19.10;;;12.55;;
5553;SDS011;2800;49.528;8.666;2022-12-13T15:12:42;24.00;;;16.27;;
5553;SDS011;2800;49.528;8.666;2022-12-13T15:20:43;19.00;;;11.10;;
5553;SDS011;2800;49.528;8.666;2022-12-13T15:23:12;15.77;;;10.90;;
5553;SDS011;2800;49.528;8.666;2022-12-13T15:25:57;13.85;;;9.48;;
5553;SDS011;2800;49.528;8.666;2022-12-13T15:28:45;28.23;;;16.23;;
5553;SDS011;2800;49.528;8.666;2022-12-13T15:31:13;21.40;;;14.15;;
5553;SDS011;2800;49.528;8.666;2022-12-13T15:33:39;16.37;;;10.67;;
5553;SDS011;2800;49.528;8.666;2022-12-13T15:36:09;23.93;;;14.70;;
5553;SDS011;2800;49.528;8.666;2022-12-13T15:41:17;23.97;;;15.93;;
5553;SDS011;2800;49.528;8.666;2022-12-13T15:43:50;29.65;;;21.00;;
5553;SDS011;2800;49.528;8.666;2022-12-13T15:46:28;30.10;;;17.63;;
5553;SDS011;2800;49.528;8.666;2022-12-13T15:48:56;21.75;;;14.65;;
5553;SDS011;2800;49.528;8.666;2022-12-13T15:51:25;14.35;;;9.40;;
5553;SDS011;2800;49.528;8.666;2022-12-13T15:54:01;12.18;;;8.15;;
5553;SDS011;2800;49.528;8.666;2022-12-13T15:59:26;14.95;;;10.15;;
5553;SDS011;2800;49.528;8.666;2022-12-13T16:01:56;22.70;;;14.85;;
5553;SDS011;2800;49.528;8.666;2022-12-13T16:04:23;13.95;;;8.75;;
5553;SDS011;2800;49.528;8.666;2022-12-13T16:06:51;16.13;;;10.05;;
5553;SDS011;2800;49.528;8.666;2022-12-13T16:09:21;19.92;;;11.45;;
5553;SDS011;2800;49.528;8.666;2022-12-13T16:11:52;17.73;;;10.55;;
5553;SDS011;2800;49.528;8.666;2022-12-13T16:16:52;21.42;;;12.10;;
5553;SDS011;2800;49.528;8.666;2022-12-13T16:19:19;15.23;;;7.40;;
5553;SDS011;2800;49.528;8.666;2022-12-13T16:21:45;17.57;;;11.57;;
5553;SDS011;2800;49.528;8.666;2022-12-13T16:24:10;23.97;;;14.93;;
5553;SDS011;2800;49.528;8.666;2022-12-13T16:26:36;27.73;;;16.60;;
5553;SDS011;2800;49.528;8.666;2022-12-13T16:29:04;16.10;;;10.03;;
5553;SDS011;2800;49.528;8.666;2022-12-13T16:31:32;15.63;;;10.60;;
5553;SDS011;2800;49.528;8.666;2022-12-13T16:34:01;16.42;;;11.07;;
5553;SDS011;2800;49.528;8.666;2022-12-13T16:36:27;15.07;;;10.13;;
5553;SDS011;2800;49.528;8.666;2022-12-13T16:38:53;35.07;;;19.60;;
5553;SDS011;2800;49.528;8.666;2022-12-13T16:41:19;42.90;;;23.53;;
5553;SDS011;2800;49.528;8.666;2022-12-13T16:43:56;17.95;;;10.95;;
5553;SDS011;2800;49.528;8.666;2022-12-13T16:46:24;17.50;;;11.90;;
5553;SDS011;2800;49.528;8.666;2022-12-13T16:48:52;19.35;;;10.88;;
5553;SDS011;2800;49.528;8.666;2022-12-13T16:51:18;22.25;;;10.35;;
5553;SDS011;2800;49.528;8.666;2022-12-13T16:53:44;16.03;;;11.30;;
5553;SDS011;2800;49.528;8.666;2022-12-13T16:56:10;13.97;;;10.00;;
5553;SDS011;2800;49.528;8.666;2022-12-13T16:58:38;17.92;;;10.98;;
5553;SDS011;2800;49.528;8.666;2022-12-13T17:01:11;21.40;;;13.83;;
5553;SDS011;2800;49.528;8.666;2022-12-13T17:03:38;21.52;;;11.95;;
5553;SDS011;2800;49.528;8.666;2022-12-13T17:06:04;32.60;;;20.10;;